createdAt,value
2018-05-27T00:00:56.792Z,4.00
2018-05-27T00:01:35.946Z,4.00
2018-05-27T00:02:36.115Z,4.00
2018-05-27T00:03:36.283Z,4.00
2018-05-27T00:04:36.450Z,4.00
2018-05-27T00:05:36.620Z,4.00
2018-05-27T00:06:36.803Z,4.00
2018-05-27T00:07:36.982Z,4.00
2018-05-27T00:08:37.135Z,4.00
2018-05-27T00:09:37.966Z,4.00
2018-05-27T00:12:09.910Z,4.00
2018-05-27T00:13:10.084Z,4.00
2018-05-27T00:14:10.247Z,4.00
2018-05-27T00:15:10.424Z,4.00
2018-05-27T00:16:10.594Z,4.00
2018-05-27T00:17:10.763Z,4.00
2018-05-27T00:18:10.936Z,4.00
2018-05-27T00:19:11.106Z,4.00
2018-05-27T00:20:11.276Z,4.00
2018-05-27T00:21:11.444Z,4.00
2018-05-27T00:22:11.617Z,4.00
2018-05-27T00:23:11.783Z,4.00
2018-05-27T00:24:11.952Z,4.00
2018-05-27T00:25:12.115Z,4.00
2018-05-27T00:26:12.284Z,4.00
2018-05-27T00:28:44.585Z,4.00
2018-05-27T00:29:44.765Z,4.00
2018-05-27T00:30:45.587Z,4.00
2018-05-27T00:31:45.132Z,4.00
2018-05-27T00:32:45.293Z,4.00
2018-05-27T00:33:45.466Z,4.00
2018-05-27T00:34:45.631Z,4.00
2018-05-27T00:35:45.800Z,4.00
2018-05-27T00:36:45.973Z,4.00
2018-05-27T00:37:46.138Z,4.00
2018-05-27T00:38:46.309Z,4.00
2018-05-27T00:39:46.480Z,4.00
2018-05-27T00:40:46.644Z,4.00
2018-05-27T00:41:46.811Z,4.00
2018-05-27T00:42:46.978Z,4.00
2018-05-27T00:45:29.539Z,4.00
2018-05-27T00:46:29.714Z,4.00
2018-05-27T00:47:29.915Z,4.00
2018-05-27T00:48:30.092Z,4.00
2018-05-27T00:49:30.250Z,4.00
2018-05-27T00:50:30.421Z,4.00
2018-05-27T00:51:30.576Z,4.00
2018-05-27T00:52:30.743Z,4.00
2018-05-27T00:53:30.909Z,4.00
2018-05-27T00:54:31.078Z,4.00
2018-05-27T00:55:31.252Z,4.00
2018-05-27T00:56:31.402Z,4.00
2018-05-27T00:57:31.576Z,4.00
2018-05-27T00:58:31.744Z,4.00
2018-05-27T00:59:31.909Z,4.00
2018-05-27T01:02:14.173Z,4.00
2018-05-27T01:03:14.344Z,4.00
2018-05-27T01:04:14.513Z,4.00
2018-05-27T01:05:14.684Z,4.00
2018-05-27T01:06:14.856Z,4.00
2018-05-27T01:07:15.020Z,4.00
2018-05-27T01:08:15.185Z,4.00
2018-05-27T01:09:15.348Z,4.00
2018-05-27T01:10:15.513Z,4.00
2018-05-27T01:11:15.681Z,4.00
2018-05-27T01:12:15.853Z,4.00
2018-05-27T01:13:16.029Z,4.00
2018-05-27T01:14:16.173Z,4.00
2018-05-27T01:15:16.356Z,4.00
2018-05-27T01:16:16.527Z,4.00
2018-05-27T01:18:59.090Z,4.00
2018-05-27T01:19:59.253Z,4.00
2018-05-27T01:20:59.425Z,4.00
2018-05-27T01:21:59.594Z,4.00
2018-05-27T01:22:59.763Z,4.00
2018-05-27T01:23:59.936Z,4.00
2018-05-27T01:25:00.091Z,4.00
2018-05-27T01:26:00.255Z,4.00
2018-05-27T01:27:00.424Z,4.00
2018-05-27T01:28:00.594Z,4.00
2018-05-27T01:29:00.761Z,4.00
2018-05-27T01:30:00.927Z,4.00
2018-05-27T01:31:01.097Z,4.00
2018-05-27T01:32:01.280Z,4.00
2018-05-27T01:33:01.420Z,4.00
2018-05-27T01:35:43.714Z,4.00
2018-05-27T01:36:43.876Z,4.00
2018-05-27T01:37:44.038Z,4.00
2018-05-27T01:38:44.203Z,4.00
2018-05-27T01:39:44.368Z,4.00
2018-05-27T01:40:44.536Z,4.00
2018-05-27T01:41:44.701Z,4.00
2018-05-27T01:42:44.869Z,4.00
2018-05-27T01:43:45.032Z,4.00
2018-05-27T01:44:45.215Z,4.00
2018-05-27T01:47:27.777Z,4.00
2018-05-27T01:48:27.941Z,4.00
2018-05-27T01:49:28.108Z,4.00
2018-05-27T01:50:28.274Z,4.00
2018-05-27T01:51:28.446Z,4.00
2018-05-27T01:52:28.612Z,4.00
2018-05-27T01:53:28.785Z,4.00
2018-05-27T01:54:28.956Z,4.00
2018-05-27T01:55:29.117Z,4.00
2018-05-27T01:56:29.291Z,4.00
2018-05-27T02:02:29.937Z,4.00
2018-05-27T02:03:30.123Z,4.00
2018-05-27T02:04:30.290Z,4.00
2018-05-27T02:05:30.447Z,4.00
2018-05-27T02:06:30.632Z,4.00
2018-05-27T02:07:30.797Z,4.00
2018-05-27T02:08:30.971Z,4.00
2018-05-27T02:09:31.142Z,4.00
2018-05-27T02:10:31.313Z,4.00
2018-05-27T02:11:31.476Z,4.00
2018-05-27T02:16:02.082Z,4.00
2018-05-27T02:17:02.241Z,4.00
2018-05-27T02:18:02.413Z,4.00
2018-05-27T02:19:02.577Z,4.00
2018-05-27T02:20:02.757Z,4.00
2018-05-27T02:21:02.916Z,4.00
2018-05-27T02:22:03.086Z,4.00
2018-05-27T02:23:03.255Z,4.00
2018-05-27T02:24:03.421Z,4.00
2018-05-27T02:25:03.607Z,4.00
2018-05-27T02:26:03.746Z,4.00
2018-05-27T02:27:03.936Z,4.00
2018-05-27T02:28:04.096Z,4.00
2018-05-27T02:29:04.265Z,4.00
2018-05-27T02:30:04.454Z,4.00
2018-05-27T02:32:47.002Z,4.00
2018-05-27T02:33:47.175Z,4.00
2018-05-27T02:34:47.334Z,4.00
2018-05-27T02:35:47.500Z,4.00
2018-05-27T02:36:47.667Z,4.00
2018-05-27T02:37:47.836Z,4.00
2018-05-27T02:38:47.997Z,4.00
2018-05-27T02:39:48.169Z,4.00
2018-05-27T02:40:48.352Z,4.00
2018-05-27T02:41:48.500Z,4.00
2018-05-27T02:42:48.669Z,4.00
2018-05-27T02:43:48.837Z,4.00
2018-05-27T02:44:49.007Z,4.00
2018-05-27T02:45:49.170Z,0.00
2018-05-27T02:46:49.358Z,4.00
2018-05-27T02:49:31.903Z,4.00
2018-05-27T02:50:32.075Z,4.00
2018-05-27T02:51:32.248Z,4.00
2018-05-27T02:52:32.410Z,8.00
2018-05-27T02:53:32.585Z,4.00
2018-05-27T02:54:32.763Z,4.00
2018-05-27T02:55:32.934Z,4.00
2018-05-27T02:56:33.103Z,4.00
2018-05-27T02:57:33.270Z,4.00
2018-05-27T02:58:33.441Z,0.00
2018-05-27T03:01:15.732Z,4.00
2018-05-27T03:02:15.894Z,4.00
2018-05-27T03:03:16.070Z,4.00
2018-05-27T03:04:16.228Z,8.00
2018-05-27T03:05:16.399Z,8.00
2018-05-27T03:06:16.568Z,8.00
2018-05-27T03:07:16.747Z,12.00
2018-05-27T03:08:16.903Z,12.00
2018-05-27T03:09:17.740Z,12.00
2018-05-27T03:10:17.272Z,12.00
2018-05-27T03:12:59.845Z,16.00
2018-05-27T03:14:00.014Z,16.00
2018-05-27T03:15:00.182Z,20.00
2018-05-27T03:16:00.352Z,24.00
2018-05-27T03:17:00.525Z,24.00
2018-05-27T03:18:00.691Z,24.00
2018-05-27T03:19:00.854Z,28.00
2018-05-27T03:20:01.025Z,32.00
2018-05-27T03:21:01.190Z,32.00
2018-05-27T03:22:01.357Z,32.00
2018-05-27T03:24:43.936Z,40.00
2018-05-27T03:25:44.109Z,40.00
2018-05-27T03:26:51.757Z,48.00
2018-05-27T03:27:44.418Z,48.00
2018-05-27T03:28:44.587Z,52.00
2018-05-27T03:29:44.759Z,52.00
2018-05-27T03:30:44.926Z,60.00
2018-05-27T03:31:45.092Z,60.00
2018-05-27T03:32:45.258Z,64.00
2018-05-27T03:33:45.423Z,68.00
2018-05-27T03:34:45.591Z,72.00
2018-05-27T03:35:45.760Z,80.00
2018-05-27T03:36:45.924Z,80.00
2018-05-27T03:37:46.091Z,84.00
2018-05-27T03:38:47.177Z,88.00
2018-05-27T03:39:46.473Z,96.00
2018-05-27T03:40:46.642Z,100.00
2018-05-27T03:43:18.918Z,112.00
2018-05-27T03:44:19.089Z,116.00
2018-05-27T03:45:19.249Z,120.00
2018-05-27T03:46:19.420Z,128.00
2018-05-27T03:47:19.584Z,132.00
2018-05-27T03:48:19.757Z,136.00
2018-05-27T03:49:19.936Z,140.00
2018-05-27T03:50:20.098Z,144.00
2018-05-27T03:51:20.265Z,152.00
2018-05-27T03:52:20.434Z,160.00
2018-05-27T03:55:03.003Z,176.00
2018-05-27T03:56:03.180Z,180.00
2018-05-27T03:57:03.354Z,188.00
2018-05-27T03:58:04.253Z,192.00
2018-05-27T03:59:03.675Z,196.00
2018-05-27T04:00:03.847Z,208.00
2018-05-27T04:01:04.016Z,212.00
2018-05-27T04:02:04.182Z,224.00
2018-05-27T04:03:04.351Z,224.00
2018-05-27T04:04:04.505Z,236.00
2018-05-27T04:06:47.086Z,252.00
2018-05-27T04:07:47.247Z,260.00
2018-05-27T04:08:47.422Z,268.00
2018-05-27T04:09:47.587Z,276.00
2018-05-27T04:10:47.780Z,284.00
2018-05-27T04:11:47.943Z,288.00
2018-05-27T04:12:48.108Z,296.00
2018-05-27T04:13:48.282Z,304.00
2018-05-27T04:14:55.665Z,316.00
2018-05-27T04:15:48.573Z,324.00
2018-05-27T04:16:48.745Z,332.00
2018-05-27T04:17:48.914Z,344.00
2018-05-27T04:18:49.079Z,352.00
2018-05-27T04:19:49.246Z,360.00
2018-05-27T04:20:49.412Z,368.00
2018-05-27T04:21:49.580Z,380.00
2018-05-27T04:22:49.749Z,388.00
2018-05-27T04:23:57.373Z,396.00
2018-05-27T04:24:50.037Z,404.00
2018-05-27T04:25:50.200Z,416.00
2018-05-27T04:26:50.367Z,424.00
2018-05-27T04:27:50.542Z,436.00
2018-05-27T04:28:50.696Z,444.00
2018-05-27T04:29:50.862Z,452.00
2018-05-27T04:30:51.036Z,464.00
2018-05-27T04:31:51.201Z,472.00
2018-05-27T04:32:51.370Z,480.00
2018-05-27T04:33:51.533Z,492.00
2018-05-27T04:34:51.701Z,504.00
2018-05-27T04:35:51.863Z,508.00
2018-05-27T04:36:52.048Z,516.00
2018-05-27T04:37:52.229Z,520.00
2018-05-27T04:40:34.799Z,532.00
2018-05-27T04:41:34.965Z,540.00
2018-05-27T04:42:35.136Z,544.00
2018-05-27T04:43:35.307Z,544.00
2018-05-27T04:44:35.472Z,552.00
2018-05-27T04:45:35.629Z,564.00
2018-05-27T04:46:35.808Z,572.00
2018-05-27T04:47:35.978Z,580.00
2018-05-27T04:48:36.142Z,580.00
2018-05-27T04:49:36.307Z,588.00
2018-05-27T04:52:18.855Z,632.00
2018-05-27T04:53:19.028Z,660.00
2018-05-27T04:54:19.202Z,676.00
2018-05-27T04:55:19.367Z,676.00
2018-05-27T04:56:19.534Z,692.00
2018-05-27T04:57:19.705Z,720.00
2018-05-27T04:58:19.872Z,756.00
2018-05-27T04:59:20.039Z,776.00
2018-05-27T05:00:20.205Z,784.00
2018-05-27T05:01:20.372Z,808.00
2018-05-27T05:04:02.969Z,872.00
2018-05-27T05:05:03.139Z,908.00
2018-05-27T05:06:03.305Z,940.00
2018-05-27T05:07:03.473Z,972.00
2018-05-27T05:08:03.644Z,1004.00
2018-05-27T05:09:03.811Z,1028.00
2018-05-27T05:10:03.976Z,1072.00
2018-05-27T05:11:04.143Z,1100.00
2018-05-27T05:12:04.311Z,1128.00
2018-05-27T05:13:04.479Z,1160.00
2018-05-27T05:15:46.758Z,1256.00
2018-05-27T05:16:46.921Z,1312.00
2018-05-27T05:17:47.088Z,1352.00
2018-05-27T05:18:47.259Z,1392.00
2018-05-27T05:19:47.425Z,1448.00
2018-05-27T05:20:47.600Z,1516.00
2018-05-27T05:21:47.762Z,1480.00
2018-05-27T05:22:47.944Z,1432.00
2018-05-27T05:23:48.094Z,1440.00
2018-05-27T05:24:48.262Z,1456.00
2018-05-27T05:27:30.860Z,1472.00
2018-05-27T05:28:30.892Z,1480.00
2018-05-27T05:29:31.073Z,1552.00
2018-05-27T05:30:31.247Z,1512.00
2018-05-27T05:31:31.411Z,1136.00
2018-05-27T05:32:31.577Z,1060.00
2018-05-27T05:33:31.737Z,1008.00
2018-05-27T05:34:31.900Z,948.00
2018-05-27T05:35:32.072Z,896.00
2018-05-27T05:36:32.243Z,860.00
2018-05-27T05:39:04.802Z,788.00
2018-05-27T05:40:04.968Z,780.00
2018-05-27T05:41:05.135Z,772.00
2018-05-27T05:42:06.045Z,780.00
2018-05-27T05:43:05.466Z,784.00
2018-05-27T05:44:05.642Z,780.00
2018-05-27T05:45:05.802Z,780.00
2018-05-27T05:46:05.995Z,788.00
2018-05-27T05:47:06.142Z,788.00
2018-05-27T05:48:06.313Z,788.00
2018-05-27T05:50:38.596Z,808.00
2018-05-27T05:51:38.765Z,812.00
2018-05-27T05:52:38.933Z,824.00
2018-05-27T05:53:39.105Z,836.00
2018-05-27T05:54:39.274Z,840.00
2018-05-27T05:55:39.443Z,852.00
2018-05-27T05:56:39.611Z,880.00
2018-05-27T05:57:39.772Z,932.00
2018-05-27T05:58:39.941Z,1028.00
2018-05-27T05:59:40.149Z,1328.00
2018-05-27T06:00:40.281Z,2284.00
2018-05-27T06:01:40.446Z,2980.00
2018-05-27T06:02:40.625Z,3148.00
2018-05-27T06:03:40.782Z,2436.00
2018-05-27T06:04:40.949Z,2696.00
2018-05-27T06:07:13.239Z,1336.00
2018-05-27T06:08:13.403Z,1256.00
2018-05-27T06:09:13.569Z,1296.00
2018-05-27T06:10:13.731Z,1944.00
2018-05-27T06:11:13.903Z,3080.00
2018-05-27T06:12:14.112Z,5684.00
2018-05-27T06:13:14.241Z,1552.00
2018-05-27T06:14:15.279Z,1556.00
2018-05-27T06:15:14.551Z,1548.00
2018-05-27T06:16:14.715Z,2352.00
2018-05-27T06:17:14.889Z,2352.00
2018-05-27T06:18:15.041Z,2108.00
2018-05-27T06:19:15.210Z,2600.00
2018-05-27T06:20:15.379Z,1712.00
2018-05-27T06:21:15.553Z,1708.00
2018-05-27T06:23:47.833Z,1680.00
2018-05-27T06:24:47.992Z,3136.00
2018-05-27T06:25:48.217Z,3100.00
2018-05-27T06:26:48.328Z,3068.00
2018-05-27T06:27:48.490Z,3196.00
2018-05-27T06:28:48.659Z,3028.00
2018-05-27T06:29:48.816Z,3052.00
2018-05-27T06:30:48.990Z,3064.00
2018-05-27T06:31:49.163Z,3200.00
2018-05-27T06:32:49.330Z,3196.00
2018-05-27T06:35:31.897Z,3240.00
2018-05-27T06:36:32.064Z,3276.00
2018-05-27T06:37:32.244Z,3304.00
2018-05-27T06:38:32.408Z,3372.00
2018-05-27T06:39:32.574Z,3388.00
2018-05-27T06:40:32.747Z,3328.00
2018-05-27T06:41:32.917Z,2880.00
2018-05-27T06:42:33.085Z,2136.00
2018-05-27T06:43:33.254Z,2380.00
2018-05-27T06:44:33.422Z,2252.00
2018-05-27T06:47:15.991Z,2688.00
2018-05-27T06:48:16.166Z,2860.00
2018-05-27T06:49:16.338Z,2944.00
2018-05-27T06:50:16.511Z,3288.00
2018-05-27T06:51:16.725Z,3272.00
2018-05-27T06:52:16.843Z,3244.00
2018-05-27T06:53:17.012Z,3220.00
2018-05-27T06:54:17.181Z,3248.00
2018-05-27T06:55:17.348Z,3296.00
2018-05-27T06:56:17.506Z,3308.00
2018-05-27T06:59:00.076Z,3240.00
2018-05-27T07:00:00.250Z,3268.00
2018-05-27T07:01:00.416Z,3440.00
2018-05-27T07:02:00.583Z,3296.00
2018-05-27T07:03:00.752Z,3272.00
2018-05-27T07:04:00.920Z,3300.00
2018-05-27T07:05:01.094Z,3368.00
2018-05-27T07:06:01.265Z,3256.00
2018-05-27T07:07:01.431Z,3040.00
2018-05-27T07:08:01.602Z,2916.00
2018-05-27T07:09:01.771Z,3112.00
2018-05-27T07:10:01.930Z,3200.00
2018-05-27T07:11:02.119Z,3296.00
2018-05-27T07:12:02.289Z,3276.00
2018-05-27T07:13:02.452Z,2856.00
2018-05-27T07:15:44.733Z,2928.00
2018-05-27T07:16:44.910Z,3128.00
2018-05-27T07:17:45.081Z,3476.00
2018-05-27T07:18:45.249Z,3364.00
2018-05-27T07:19:45.415Z,3216.00
2018-05-27T07:20:45.577Z,2928.00
2018-05-27T07:21:45.741Z,3284.00
2018-05-27T07:22:45.908Z,3348.00
2018-05-27T07:23:46.076Z,3312.00
2018-05-27T07:24:46.270Z,3332.00
2018-05-27T07:25:46.451Z,3396.00
2018-05-27T07:26:46.621Z,3376.00
2018-05-27T07:27:46.791Z,3468.00
2018-05-27T07:28:46.952Z,3768.00
2018-05-27T07:29:47.132Z,3780.00
2018-05-27T07:32:29.699Z,3764.00
2018-05-27T07:33:29.880Z,3464.00
2018-05-27T07:34:30.089Z,3292.00
2018-05-27T07:35:30.232Z,3660.00
2018-05-27T07:36:30.398Z,3724.00
2018-05-27T07:37:30.571Z,3788.00
2018-05-27T07:38:30.733Z,3632.00
2018-05-27T07:39:30.911Z,3412.00
2018-05-27T07:40:31.080Z,3596.00
2018-05-27T07:41:31.250Z,3484.00
2018-05-27T07:42:32.355Z,3332.00
2018-05-27T07:43:31.575Z,3168.00
2018-05-27T07:44:31.744Z,3176.00
2018-05-27T07:45:31.908Z,3556.00
2018-05-27T07:46:32.080Z,3176.00
2018-05-27T07:49:14.650Z,3392.00
2018-05-27T07:50:14.827Z,3260.00
2018-05-27T07:51:14.996Z,3344.00
2018-05-27T07:52:15.171Z,3136.00
2018-05-27T07:53:15.339Z,3608.00
2018-05-27T07:54:15.507Z,3776.00
2018-05-27T07:55:15.679Z,3684.00
2018-05-27T07:56:15.849Z,3460.00
2018-05-27T07:57:16.020Z,3436.00
2018-05-27T07:58:16.204Z,3476.00
2018-05-27T07:59:16.357Z,3308.00
2018-05-27T08:00:16.528Z,2600.00
2018-05-27T08:01:16.695Z,2588.00
2018-05-27T08:02:16.871Z,2196.00
2018-05-27T08:03:17.058Z,2008.00
2018-05-27T08:05:59.648Z,1668.00
2018-05-27T08:06:59.817Z,1580.00
2018-05-27T08:07:59.991Z,1480.00
2018-05-27T08:09:00.160Z,1452.00
2018-05-27T08:10:00.332Z,1436.00
2018-05-27T08:11:00.502Z,1412.00
2018-05-27T08:12:00.677Z,1360.00
2018-05-27T08:13:00.845Z,1344.00
2018-05-27T08:14:01.018Z,1348.00
2018-05-27T08:15:01.187Z,1352.00
2018-05-27T08:16:01.355Z,1336.00
2018-05-27T08:17:01.540Z,1336.00
2018-05-27T08:18:01.715Z,1380.00
2018-05-27T08:19:01.887Z,1348.00
2018-05-27T08:20:02.075Z,1364.00
2018-05-27T08:22:44.335Z,1416.00
2018-05-27T08:23:44.510Z,1432.00
2018-05-27T08:24:44.683Z,1428.00
2018-05-27T08:25:44.860Z,1440.00
2018-05-27T08:26:45.021Z,1476.00
2018-05-27T08:27:45.196Z,1416.00
2018-05-27T08:28:45.373Z,1408.00
2018-05-27T08:29:45.540Z,1404.00
2018-05-27T08:30:45.712Z,1384.00
2018-05-27T08:31:45.883Z,1392.00
2018-05-27T08:32:46.057Z,1392.00
2018-05-27T08:33:46.251Z,1396.00
2018-05-27T08:34:46.425Z,1468.00
2018-05-27T08:35:46.623Z,1472.00
2018-05-27T08:36:54.762Z,1560.00
2018-05-27T08:37:46.927Z,1440.00
2018-05-27T08:38:47.099Z,1512.00
2018-05-27T08:39:47.265Z,1620.00
2018-05-27T08:40:47.434Z,1600.00
2018-05-27T08:41:47.604Z,1608.00
2018-05-27T08:42:47.765Z,1632.00
2018-05-27T08:43:47.944Z,1740.00
2018-05-27T08:44:48.223Z,1840.00
2018-05-27T08:45:48.301Z,1924.00
2018-05-27T08:46:49.317Z,2080.00
2018-05-27T08:47:48.697Z,2216.00
2018-05-27T08:48:56.859Z,2236.00
2018-05-27T08:49:49.004Z,3028.00
2018-05-27T08:50:49.177Z,3044.00
2018-05-27T08:51:49.347Z,2852.00
2018-05-27T08:52:49.519Z,2928.00
2018-05-27T08:53:49.689Z,2980.00
2018-05-27T08:54:49.863Z,2876.00
2018-05-27T08:55:50.035Z,2800.00
2018-05-27T08:56:50.204Z,2968.00
2018-05-27T08:57:50.378Z,2756.00
2018-05-27T08:58:50.569Z,2980.00
2018-05-27T08:59:50.708Z,3116.00
2018-05-27T09:00:50.877Z,3252.00
2018-05-27T09:01:51.051Z,3044.00
2018-05-27T09:02:51.221Z,3000.00
2018-05-27T09:05:33.799Z,2728.00
2018-05-27T09:06:33.970Z,2832.00
2018-05-27T09:07:34.146Z,2256.00
2018-05-27T09:08:34.316Z,2496.00
2018-05-27T09:09:34.494Z,2388.00
2018-05-27T09:10:34.657Z,2704.00
2018-05-27T09:11:34.825Z,2764.00
2018-05-27T09:12:35.018Z,2908.00
2018-05-27T09:13:35.167Z,3352.00
2018-05-27T09:14:35.334Z,3400.00
2018-05-27T09:15:35.532Z,3416.00
2018-05-27T09:16:35.707Z,3564.00
2018-05-27T09:17:35.890Z,3392.00
2018-05-27T09:18:36.066Z,3400.00
2018-05-27T09:19:36.224Z,3332.00
2018-05-27T09:22:18.523Z,3060.00
2018-05-27T09:23:18.705Z,3136.00
2018-05-27T09:24:18.863Z,2988.00
2018-05-27T09:25:19.034Z,2984.00
2018-05-27T09:26:19.204Z,2864.00
2018-05-27T09:27:19.376Z,2860.00
2018-05-27T09:28:19.546Z,2964.00
2018-05-27T09:29:19.721Z,2944.00
2018-05-27T09:30:19.889Z,3056.00
2018-05-27T09:31:20.066Z,2932.00
2018-05-27T09:32:20.233Z,2944.00
2018-05-27T09:33:20.405Z,2992.00
2018-05-27T09:34:20.579Z,2912.00
2018-05-27T09:35:20.763Z,2804.00
2018-05-27T09:36:20.945Z,2716.00
2018-05-27T09:39:03.245Z,2888.00
2018-05-27T09:40:03.417Z,2692.00
2018-05-27T09:41:03.587Z,2912.00
2018-05-27T09:42:03.782Z,2708.00
2018-05-27T09:43:03.995Z,2560.00
2018-05-27T09:44:04.148Z,2500.00
2018-05-27T09:45:04.373Z,2536.00
2018-05-27T09:46:04.498Z,2468.00
2018-05-27T09:47:04.666Z,2460.00
2018-05-27T09:48:04.838Z,2644.00
2018-05-27T09:49:05.014Z,2268.00
2018-05-27T09:50:05.188Z,2332.00
2018-05-27T09:51:05.414Z,2724.00
2018-05-27T09:52:05.602Z,2500.00
2018-05-27T09:53:05.733Z,2796.00
2018-05-27T09:55:48.317Z,2820.00
2018-05-27T09:56:48.510Z,2928.00
2018-05-27T09:57:48.698Z,2908.00
2018-05-27T09:58:48.861Z,2908.00
2018-05-27T09:59:49.539Z,2556.00
2018-05-27T10:00:49.213Z,2804.00
2018-05-27T10:01:49.486Z,2852.00
2018-05-27T10:02:49.585Z,2716.00
2018-05-27T10:03:49.764Z,2532.00
2018-05-27T10:04:49.952Z,2684.00
2018-05-27T10:05:50.138Z,2772.00
2018-05-27T10:06:50.312Z,2636.00
2018-05-27T10:07:50.514Z,3192.00
2018-05-27T10:08:50.678Z,3228.00
2018-05-27T10:09:50.856Z,2604.00
2018-05-27T10:12:33.420Z,2092.00
2018-05-27T10:13:33.670Z,2172.00
2018-05-27T10:14:33.748Z,2884.00
2018-05-27T10:15:33.915Z,4264.00
2018-05-27T10:16:34.148Z,3812.00
2018-05-27T10:17:34.306Z,3652.00
2018-05-27T10:18:34.478Z,3328.00
2018-05-27T10:19:34.651Z,6028.00
2018-05-27T10:20:34.900Z,4436.00
2018-05-27T10:21:34.951Z,3960.00
2018-05-27T10:22:35.107Z,3244.00
2018-05-27T10:23:35.318Z,3104.00
2018-05-27T10:24:35.522Z,6364.00
2018-05-27T10:25:35.777Z,4552.00
2018-05-27T10:26:35.870Z,4784.00
2018-05-27T10:29:18.512Z,3116.00
2018-05-27T10:30:18.694Z,3024.00
2018-05-27T10:31:18.893Z,3088.00
2018-05-27T10:32:19.064Z,2796.00
2018-05-27T10:33:19.238Z,2780.00
2018-05-27T10:34:19.434Z,2868.00
2018-05-27T10:35:19.604Z,2720.00
2018-05-27T10:36:19.778Z,2792.00
2018-05-27T10:37:19.952Z,2752.00
2018-05-27T10:38:20.124Z,2636.00
2018-05-27T10:39:20.293Z,2592.00
2018-05-27T10:40:20.547Z,2664.00
2018-05-27T10:41:20.594Z,2656.00
2018-05-27T10:42:28.796Z,2780.00
2018-05-27T10:43:20.952Z,2700.00
2018-05-27T10:44:21.143Z,2720.00
2018-05-27T10:45:21.308Z,2652.00
2018-05-27T10:46:33.481Z,2648.00
2018-05-27T10:47:21.643Z,2616.00
2018-05-27T10:48:21.820Z,2600.00
2018-05-27T10:50:54.446Z,2656.00
2018-05-27T10:51:54.630Z,2640.00
2018-05-27T10:52:54.821Z,2604.00
2018-05-27T10:53:55.043Z,2596.00
2018-05-27T10:54:55.111Z,2564.00
2018-05-27T10:55:55.281Z,2560.00
2018-05-27T10:56:55.454Z,2572.00
2018-05-27T10:57:55.633Z,2564.00
2018-05-27T10:58:55.819Z,2592.00
2018-05-27T10:59:56.071Z,2508.00
2018-05-27T11:00:56.170Z,2552.00
2018-05-27T11:01:56.344Z,2528.00
2018-05-27T11:02:56.549Z,2548.00
2018-05-27T11:03:56.769Z,2532.00
2018-05-27T11:04:56.941Z,2544.00
2018-05-27T11:07:29.623Z,2520.00
2018-05-27T11:08:29.798Z,2508.00
2018-05-27T11:09:29.969Z,2484.00
2018-05-27T11:10:30.129Z,2512.00
2018-05-27T11:11:30.299Z,2548.00
2018-05-27T11:12:30.496Z,2512.00
2018-05-27T11:13:30.658Z,2572.00
2018-05-27T11:14:30.849Z,2460.00
2018-05-27T11:15:31.014Z,2452.00
2018-05-27T11:16:31.187Z,2396.00
2018-05-27T11:17:31.404Z,2400.00
2018-05-27T11:18:31.595Z,2460.00
2018-05-27T11:19:31.765Z,2400.00
2018-05-27T11:20:31.936Z,2376.00
2018-05-27T11:21:32.115Z,2440.00
2018-05-27T11:24:14.441Z,2428.00
2018-05-27T11:25:14.631Z,2376.00
2018-05-27T11:26:14.945Z,2404.00
2018-05-27T11:27:15.047Z,2388.00
2018-05-27T11:28:15.217Z,2372.00
2018-05-27T11:29:22.859Z,2364.00
2018-05-27T11:30:16.458Z,2348.00
2018-05-27T11:31:15.770Z,2320.00
2018-05-27T11:32:15.922Z,2296.00
2018-05-27T11:33:23.599Z,2260.00
2018-05-27T11:34:17.067Z,2268.00
2018-05-27T11:35:16.481Z,2284.00
2018-05-27T11:36:16.668Z,2292.00
2018-05-27T11:37:17.888Z,2300.00
2018-05-27T11:38:17.073Z,2276.00
2018-05-27T11:39:17.316Z,2300.00
2018-05-27T11:40:17.479Z,2316.00
2018-05-27T11:41:17.610Z,2292.00
2018-05-27T11:42:17.784Z,2288.00
2018-05-27T11:43:18.510Z,2284.00
2018-05-27T11:46:00.879Z,2256.00
2018-05-27T11:47:00.490Z,2260.00
2018-05-27T11:48:00.627Z,2300.00
2018-05-27T11:49:00.801Z,2264.00
2018-05-27T11:50:01.014Z,2332.00
2018-05-27T11:51:01.318Z,2324.00
2018-05-27T11:52:01.461Z,2312.00
2018-05-27T11:53:04.366Z,2324.00
2018-05-27T11:54:01.780Z,2404.00
2018-05-27T11:55:01.947Z,2348.00
2018-05-27T12:00:32.627Z,2224.00
2018-05-27T12:01:32.784Z,1080.00
2018-05-27T12:02:32.944Z,1072.00
2018-05-27T12:03:40.831Z,1124.00
2018-05-27T12:04:33.280Z,1208.00
2018-05-27T12:05:33.478Z,1308.00
2018-05-27T12:06:33.654Z,1716.00
2018-05-27T12:07:33.856Z,2560.00
2018-05-27T12:08:34.026Z,2636.00
2018-05-27T12:09:34.295Z,2588.00
2018-05-27T12:10:34.427Z,2660.00
2018-05-27T12:11:34.613Z,2648.00
2018-05-27T12:12:34.789Z,2616.00
2018-05-27T12:13:34.962Z,2668.00
2018-05-27T12:14:35.160Z,2708.00
2018-05-27T12:15:35.960Z,2724.00
2018-05-27T12:16:35.509Z,2736.00
2018-05-27T12:17:35.686Z,2720.00
2018-05-27T12:20:08.034Z,2792.00
2018-05-27T12:21:08.223Z,2796.00
2018-05-27T12:22:08.410Z,2824.00
2018-05-27T12:23:08.630Z,2784.00
2018-05-27T12:24:08.785Z,2800.00
2018-05-27T12:25:08.921Z,2784.00
2018-05-27T12:26:09.094Z,2832.00
2018-05-27T12:27:09.262Z,2936.00
2018-05-27T12:28:09.447Z,2732.00
2018-05-27T12:29:09.628Z,1932.00
2018-05-27T12:30:09.806Z,2132.00
2018-05-27T12:31:09.982Z,1904.00
2018-05-27T12:32:10.158Z,2028.00
2018-05-27T12:33:10.331Z,1692.00
2018-05-27T12:34:10.516Z,2484.00
2018-05-27T12:36:53.147Z,2892.00
2018-05-27T12:37:53.854Z,2756.00
2018-05-27T12:38:53.375Z,2732.00
2018-05-27T12:39:53.549Z,2692.00
2018-05-27T12:40:53.710Z,2700.00
2018-05-27T12:41:53.898Z,2620.00
2018-05-27T12:42:54.136Z,2680.00
2018-05-27T12:43:54.279Z,2784.00
2018-05-27T12:44:54.472Z,2780.00
2018-05-27T12:45:54.647Z,2732.00
2018-05-27T12:48:36.942Z,2604.00
2018-05-27T12:49:37.110Z,2740.00
2018-05-27T12:50:37.312Z,2780.00
2018-05-27T12:51:37.500Z,2548.00
2018-05-27T12:52:37.700Z,2548.00
2018-05-27T12:53:37.872Z,2500.00
2018-05-27T12:54:38.044Z,2604.00
2018-05-27T12:55:38.267Z,2500.00
2018-05-27T12:56:38.451Z,2668.00
2018-05-27T12:57:38.659Z,2508.00
2018-05-27T13:03:19.371Z,2424.00
2018-05-27T13:04:19.408Z,2436.00
2018-05-27T13:05:19.579Z,2496.00
2018-05-27T13:06:19.756Z,2524.00
2018-05-27T13:07:19.944Z,2528.00
2018-05-27T13:08:20.142Z,2572.00
2018-05-27T13:09:20.313Z,2504.00
2018-05-27T13:10:20.499Z,2572.00
2018-05-27T13:11:20.659Z,2548.00
2018-05-27T13:12:20.849Z,2408.00
2018-05-27T13:13:21.027Z,2392.00
2018-05-27T13:14:21.219Z,2348.00
2018-05-27T13:15:21.397Z,2288.00
2018-05-27T13:16:21.728Z,2260.00
2018-05-27T13:17:21.736Z,1704.00
2018-05-27T13:20:04.048Z,1716.00
2018-05-27T13:21:04.248Z,1572.00
2018-05-27T13:22:04.415Z,1692.00
2018-05-27T13:23:04.599Z,1588.00
2018-05-27T13:24:04.777Z,1608.00
2018-05-27T13:25:05.024Z,1432.00
2018-05-27T13:26:05.183Z,1412.00
2018-05-27T13:27:05.367Z,1348.00
2018-05-27T13:28:05.530Z,1440.00
2018-05-27T13:29:05.821Z,1500.00
2018-05-27T13:31:48.070Z,1292.00
2018-05-27T13:32:48.236Z,1296.00
2018-05-27T13:33:48.464Z,1372.00
2018-05-27T13:34:48.645Z,1728.00
2018-05-27T13:35:48.823Z,1820.00
2018-05-27T13:36:56.509Z,1484.00
2018-05-27T13:37:49.161Z,1508.00
2018-05-27T13:38:49.341Z,1376.00
2018-05-27T13:39:49.522Z,1540.00
2018-05-27T13:40:49.729Z,1560.00
2018-05-27T13:41:49.881Z,1580.00
2018-05-27T13:42:50.058Z,1568.00
2018-05-27T13:43:57.957Z,1492.00
2018-05-27T13:44:50.512Z,1432.00
2018-05-27T13:45:50.574Z,1372.00
2018-05-27T13:46:50.792Z,1436.00
2018-05-27T13:47:51.574Z,1380.00
2018-05-27T13:48:51.013Z,1388.00
2018-05-27T13:49:51.270Z,1384.00
2018-05-27T13:50:51.425Z,1360.00
2018-05-27T13:51:51.665Z,1408.00
2018-05-27T13:52:51.711Z,1400.00
2018-05-27T13:53:51.891Z,1392.00
2018-05-27T13:54:52.075Z,1420.00
2018-05-27T13:55:52.281Z,1424.00
2018-05-27T13:56:52.475Z,1424.00
2018-05-27T13:58:00.644Z,1436.00
2018-05-27T13:58:52.833Z,1444.00
2018-05-27T13:59:53.016Z,1480.00
2018-05-27T14:00:53.201Z,1472.00
2018-05-27T14:01:53.397Z,1500.00
2018-05-27T14:02:53.591Z,1564.00
2018-05-27T14:03:53.780Z,1576.00